sensor_id;sensor_type;location;lat;lon;timestamp;pressure;altitude;pressure_sealevel;temperature;humidity
66801;BME280;53703;50.326;19.122;2023-07-20T00:01:29;97955.74;;;22.17;59.54
66801;BME280;53703;50.326;19.122;2023-07-20T00:04:03;97951.05;;;22.12;59.81
66801;BME280;53703;50.326;19.122;2023-07-20T00:06:36;97953.20;;;22.13;59.83
66801;BME280;53703;50.326;19.122;2023-07-20T00:09:12;97952.08;;;22.13;59.80
66801;BME280;53703;50.326;19.122;2023-07-20T00:11:53;97948.52;;;22.13;60.10
66801;BME280;53703;50.326;19.122;2023-07-20T00:14:26;97950.41;;;22.14;59.83
66801;BME280;53703;50.326;19.122;2023-07-20T00:16:59;97954.20;;;22.05;60.15
66801;BME280;53703;50.326;19.122;2023-07-20T00:19:33;97961.37;;;22.11;59.88
66801;BME280;53703;50.326;19.122;2023-07-20T00:22:07;97962.64;;;22.11;59.70
66801;BME280;53703;50.326;19.122;2023-07-20T00:24:41;97972.41;;;22.15;59.65
66801;BME280;53703;50.326;19.122;2023-07-20T00:27:14;97992.27;;;22.13;59.58
66801;BME280;53703;50.326;19.122;2023-07-20T00:29:48;98023.38;;;22.11;59.16
66801;BME280;53703;50.326;19.122;2023-07-20T00:32:21;98031.13;;;22.06;58.77
66801;BME280;53703;50.326;19.122;2023-07-20T00:34:54;98032.34;;;22.11;57.73
66801;BME280;53703;50.326;19.122;2023-07-20T00:37:28;98044.01;;;22.11;57.30
66801;BME280;53703;50.326;19.122;2023-07-20T00:40:02;98038.77;;;22.11;56.38
66801;BME280;53703;50.326;19.122;2023-07-20T00:42:37;98047.35;;;22.09;56.06
66801;BME280;53703;50.326;19.122;2023-07-20T00:45:11;98058.70;;;22.12;55.82
66801;BME280;53703;50.326;19.122;2023-07-20T00:47:44;98063.45;;;22.08;55.74
66801;BME280;53703;50.326;19.122;2023-07-20T00:50:18;98064.01;;;22.08;56.04
66801;BME280;53703;50.326;19.122;2023-07-20T00:52:52;98058.52;;;22.02;56.44
66801;BME280;53703;50.326;19.122;2023-07-20T00:55:26;98057.48;;;22.01;56.49
66801;BME280;53703;50.326;19.122;2023-07-20T00:58:00;98062.33;;;22.01;56.81
66801;BME280;53703;50.326;19.122;2023-07-20T01:00:33;98057.23;;;21.96;57.18
66801;BME280;53703;50.326;19.122;2023-07-20T01:03:07;98055.64;;;21.96;57.09
66801;BME280;53703;50.326;19.122;2023-07-20T01:05:51;98049.11;;;21.90;57.60
66801;BME280;53703;50.326;19.122;2023-07-20T01:08:35;98056.52;;;21.99;57.79
66801;BME280;53703;50.326;19.122;2023-07-20T01:11:20;98054.44;;;21.91;58.25
66801;BME280;53703;50.326;19.122;2023-07-20T01:13:56;98046.02;;;21.94;58.41
66801;BME280;53703;50.326;19.122;2023-07-20T01:16:31;98034.73;;;21.88;58.63
66801;BME280;53703;50.326;19.122;2023-07-20T01:19:05;98028.87;;;21.90;58.48
66801;BME280;53703;50.326;19.122;2023-07-20T01:21:47;98022.77;;;21.91;58.70
66801;BME280;53703;50.326;19.122;2023-07-20T01:24:42;98021.73;;;21.91;58.46
66801;BME280;53703;50.326;19.122;2023-07-20T01:27:40;98010.98;;;21.81;58.99
66801;BME280;53703;50.326;19.122;2023-07-20T01:30:58;98000.80;;;21.75;59.56
66801;BME280;53703;50.326;19.122;2023-07-20T01:33:34;97981.23;;;21.68;59.62
66801;BME280;53703;50.326;19.122;2023-07-20T01:36:08;97982.54;;;21.74;59.41
66801;BME280;53703;50.326;19.122;2023-07-20T01:38:43;97985.30;;;21.70;60.09
66801;BME280;53703;50.326;19.122;2023-07-20T01:41:18;97996.23;;;21.83;59.65
66801;BME280;53703;50.326;19.122;2023-07-20T01:43:51;97994.30;;;21.79;59.77
66801;BME280;53703;50.326;19.122;2023-07-20T01:46:24;97989.06;;;21.77;59.85
66801;BME280;53703;50.326;19.122;2023-07-20T01:48:58;97991.70;;;21.79;59.60
66801;BME280;53703;50.326;19.122;2023-07-20T01:51:32;97998.18;;;21.75;59.57
66801;BME280;53703;50.326;19.122;2023-07-20T01:54:05;97991.87;;;21.84;59.20
66801;BME280;53703;50.326;19.122;2023-07-20T01:56:39;98002.88;;;21.78;59.35
66801;BME280;53703;50.326;19.122;2023-07-20T01:59:12;98013.83;;;21.78;59.69
66801;BME280;53703;50.326;19.122;2023-07-20T02:01:45;98011.69;;;21.78;59.40
66801;BME280;53703;50.326;19.122;2023-07-20T02:04:19;98016.77;;;21.79;59.35
66801;BME280;53703;50.326;19.122;2023-07-20T02:06:52;98019.79;;;21.79;59.47
66801;BME280;53703;50.326;19.122;2023-07-20T02:09:26;98022.34;;;21.84;59.51
66801;BME280;53703;50.326;19.122;2023-07-20T02:11:59;98021.79;;;21.83;59.58
66801;BME280;53703;50.326;19.122;2023-07-20T02:14:32;98017.00;;;21.78;59.60
66801;BME280;53703;50.326;19.122;2023-07-20T02:17:06;98020.94;;;21.74;59.58
66801;BME280;53703;50.326;19.122;2023-07-20T02:19:43;98026.53;;;21.81;58.96
66801;BME280;53703;50.326;19.122;2023-07-20T02:22:16;98034.36;;;21.74;58.69
66801;BME280;53703;50.326;19.122;2023-07-20T02:24:50;98037.28;;;21.71;58.69
66801;BME280;53703;50.326;19.122;2023-07-20T02:27:23;98035.33;;;21.77;58.52
66801;BME280;53703;50.326;19.122;2023-07-20T02:29:56;98026.83;;;21.76;58.17
66801;BME280;53703;50.326;19.122;2023-07-20T02:32:31;98028.05;;;21.69;58.09
66801;BME280;53703;50.326;19.122;2023-07-20T02:35:06;98034.30;;;21.80;57.74
66801;BME280;53703;50.326;19.122;2023-07-20T02:37:40;98040.71;;;21.74;57.77
66801;BME280;53703;50.326;19.122;2023-07-20T02:40:14;98053.08;;;21.74;57.52
66801;BME280;53703;50.326;19.122;2023-07-20T02:42:47;98060.48;;;21.76;57.27
66801;BME280;53703;50.326;19.122;2023-07-20T02:45:21;98066.85;;;21.69;57.37
66801;BME280;53703;50.326;19.122;2023-07-20T02:47:54;98069.20;;;21.63;57.16
66801;BME280;53703;50.326;19.122;2023-07-20T02:50:28;98065.40;;;21.67;56.99
66801;BME280;53703;50.326;19.122;2023-07-20T02:53:01;98055.38;;;21.63;56.92
66801;BME280;53703;50.326;19.122;2023-07-20T02:55:34;98060.80;;;21.66;56.93
66801;BME280;53703;50.326;19.122;2023-07-20T02:58:08;98059.15;;;21.68;56.86
66801;BME280;53703;50.326;19.122;2023-07-20T03:00:43;98063.60;;;21.58;56.84
66801;BME280;53703;50.326;19.122;2023-07-20T03:03:17;98073.70;;;21.60;56.63
66801;BME280;53703;50.326;19.122;2023-07-20T03:05:50;98072.61;;;21.63;56.15
66801;BME280;53703;50.326;19.122;2023-07-20T03:08:26;98073.00;;;21.63;56.40
66801;BME280;53703;50.326;19.122;2023-07-20T03:10:59;98078.05;;;21.58;56.14
66801;BME280;53703;50.326;19.122;2023-07-20T03:13:33;98077.15;;;21.56;55.99
66801;BME280;53703;50.326;19.122;2023-07-20T03:16:07;98086.11;;;21.55;56.13
66801;BME280;53703;50.326;19.122;2023-07-20T03:18:43;98087.36;;;21.51;56.11
66801;BME280;53703;50.326;19.122;2023-07-20T03:21:16;98096.52;;;21.55;55.88
66801;BME280;53703;50.326;19.122;2023-07-20T03:23:50;98099.47;;;21.58;55.60
66801;BME280;53703;50.326;19.122;2023-07-20T03:26:23;98098.81;;;21.56;55.28
66801;BME280;53703;50.326;19.122;2023-07-20T03:28:57;98102.52;;;21.52;55.34
66801;BME280;53703;50.326;19.122;2023-07-20T03:31:30;98108.73;;;21.55;55.35
66801;BME280;53703;50.326;19.122;2023-07-20T03:34:04;98108.24;;;21.54;55.46
66801;BME280;53703;50.326;19.122;2023-07-20T03:36:38;98110.88;;;21.56;55.51
66801;BME280;53703;50.326;19.122;2023-07-20T03:39:11;98107.58;;;21.48;55.34
66801;BME280;53703;50.326;19.122;2023-07-20T03:41:45;98114.06;;;21.47;55.77
66801;BME280;53703;50.326;19.122;2023-07-20T03:44:18;98130.23;;;21.57;55.71
66801;BME280;53703;50.326;19.122;2023-07-20T03:46:52;98134.77;;;21.47;55.51
66801;BME280;53703;50.326;19.122;2023-07-20T03:49:25;98131.85;;;21.39;55.91
66801;BME280;53703;50.326;19.122;2023-07-20T03:51:59;98144.17;;;21.43;55.82
66801;BME280;53703;50.326;19.122;2023-07-20T03:54:32;98155.66;;;21.40;55.89
66801;BME280;53703;50.326;19.122;2023-07-20T03:57:06;98149.73;;;21.43;55.88
66801;BME280;53703;50.326;19.122;2023-07-20T03:59:45;98143.70;;;21.44;56.11
66801;BME280;53703;50.326;19.122;2023-07-20T04:02:19;98136.88;;;21.43;56.17
66801;BME280;53703;50.326;19.122;2023-07-20T04:04:53;98145.90;;;21.40;56.34
66801;BME280;53703;50.326;19.122;2023-07-20T04:07:26;98159.34;;;21.45;56.31
66801;BME280;53703;50.326;19.122;2023-07-20T04:09:59;98162.70;;;21.48;56.35
66801;BME280;53703;50.326;19.122;2023-07-20T04:12:33;98142.17;;;21.40;56.34
66801;BME280;53703;50.326;19.122;2023-07-20T04:15:08;98149.39;;;21.30;56.76
66801;BME280;53703;50.326;19.122;2023-07-20T04:17:42;98158.07;;;21.34;56.56
66801;BME280;53703;50.326;19.122;2023-07-20T04:20:15;98163.35;;;21.31;56.71
66801;BME280;53703;50.326;19.122;2023-07-20T04:22:50;98159.78;;;21.30;57.03
66801;BME280;53703;50.326;19.122;2023-07-20T04:25:23;98134.22;;;21.37;56.80
66801;BME280;53703;50.326;19.122;2023-07-20T04:27:57;98148.77;;;21.32;57.02
66801;BME280;53703;50.326;19.122;2023-07-20T04:30:31;98140.14;;;21.55;56.63
66801;BME280;53703;50.326;19.122;2023-07-20T04:33:04;98147.55;;;21.49;57.02
66801;BME280;53703;50.326;19.122;2023-07-20T04:35:52;98140.69;;;21.33;57.48
66801;BME280;53703;50.326;19.122;2023-07-20T04:38:26;98142.79;;;21.16;58.14
66801;BME280;53703;50.326;19.122;2023-07-20T04:41:00;98132.66;;;21.20;57.79
66801;BME280;53703;50.326;19.122;2023-07-20T04:43:33;98136.11;;;21.15;57.74
66801;BME280;53703;50.326;19.122;2023-07-20T04:46:07;98139.39;;;21.18;57.64
66801;BME280;53703;50.326;19.122;2023-07-20T04:48:41;98134.32;;;21.40;57.62
66801;BME280;53703;50.326;19.122;2023-07-20T04:51:14;98136.64;;;21.42;57.49
66801;BME280;53703;50.326;19.122;2023-07-20T04:53:49;98139.92;;;21.37;57.92
66801;BME280;53703;50.326;19.122;2023-07-20T04:56:23;98143.84;;;21.50;57.86
66801;BME280;53703;50.326;19.122;2023-07-20T04:58:56;98139.28;;;21.46;58.00
66801;BME280;53703;50.326;19.122;2023-07-20T05:01:30;98140.14;;;21.43;58.42
66801;BME280;53703;50.326;19.122;2023-07-20T05:04:04;98158.42;;;21.49;58.58
66801;BME280;53703;50.326;19.122;2023-07-20T05:06:40;98164.10;;;21.44;58.68
66801;BME280;53703;50.326;19.122;2023-07-20T05:09:14;98163.30;;;21.43;59.02
66801;BME280;53703;50.326;19.122;2023-07-20T05:11:47;98158.85;;;21.42;58.96
66801;BME280;53703;50.326;19.122;2023-07-20T05:14:21;98154.45;;;21.37;59.06
66801;BME280;53703;50.326;19.122;2023-07-20T05:16:55;98151.16;;;21.33;59.31
66801;BME280;53703;50.326;19.122;2023-07-20T05:19:29;98152.83;;;21.33;59.19
66801;BME280;53703;50.326;19.122;2023-07-20T05:22:02;98162.74;;;21.35;59.09
66801;BME280;53703;50.326;19.122;2023-07-20T05:24:37;98172.13;;;21.36;59.41
66801;BME280;53703;50.326;19.122;2023-07-20T05:27:11;98176.42;;;21.39;59.51
66801;BME280;53703;50.326;19.122;2023-07-20T05:29:47;98182.66;;;21.35;59.43
66801;BME280;53703;50.326;19.122;2023-07-20T05:32:21;98184.56;;;21.36;59.40
66801;BME280;53703;50.326;19.122;2023-07-20T05:34:56;98184.66;;;21.37;59.04
66801;BME280;53703;50.326;19.122;2023-07-20T05:37:30;98183.76;;;21.33;58.79
66801;BME280;53703;50.326;19.122;2023-07-20T05:40:03;98189.34;;;21.38;58.95
66801;BME280;53703;50.326;19.122;2023-07-20T05:42:37;98191.45;;;21.34;59.03
66801;BME280;53703;50.326;19.122;2023-07-20T05:45:12;98196.74;;;21.33;59.20
66801;BME280;53703;50.326;19.122;2023-07-20T05:47:45;98198.58;;;21.33;59.37
66801;BME280;53703;50.326;19.122;2023-07-20T05:50:19;98195.33;;;21.35;59.18
66801;BME280;53703;50.326;19.122;2023-07-20T05:52:55;98196.28;;;21.33;59.42
66801;BME280;53703;50.326;19.122;2023-07-20T05:55:28;98189.54;;;21.34;59.42
66801;BME280;53703;50.326;19.122;2023-07-20T05:58:02;98190.02;;;21.32;59.37
66801;BME280;53703;50.326;19.122;2023-07-20T06:00:36;98195.89;;;21.34;59.17
66801;BME280;53703;50.326;19.122;2023-07-20T06:03:09;98195.90;;;21.35;59.16
66801;BME280;53703;50.326;19.122;2023-07-20T06:05:43;98190.89;;;21.33;59.16
66801;BME280;53703;50.326;19.122;2023-07-20T06:08:17;98194.02;;;21.36;59.19
66801;BME280;53703;50.326;19.122;2023-07-20T06:10:54;98198.59;;;21.34;59.46
66801;BME280;53703;50.326;19.122;2023-07-20T06:13:28;98196.44;;;21.35;59.02
66801;BME280;53703;50.326;19.122;2023-07-20T06:16:01;98198.76;;;21.34;59.16
66801;BME280;53703;50.326;19.122;2023-07-20T06:18:35;98197.42;;;21.36;59.18
66801;BME280;53703;50.326;19.122;2023-07-20T06:21:09;98196.16;;;21.38;59.24
66801;BME280;53703;50.326;19.122;2023-07-20T06:23:43;98198.30;;;21.48;58.93
66801;BME280;53703;50.326;19.122;2023-07-20T06:26:17;98200.33;;;21.52;59.03
66801;BME280;53703;50.326;19.122;2023-07-20T06:28:52;98198.36;;;21.56;58.79
66801;BME280;53703;50.326;19.122;2023-07-20T06:31:26;98190.45;;;21.58;58.64
66801;BME280;53703;50.326;19.122;2023-07-20T06:34:00;98187.15;;;21.62;58.69
66801;BME280;53703;50.326;19.122;2023-07-20T06:36:34;98184.70;;;21.63;58.60
66801;BME280;53703;50.326;19.122;2023-07-20T06:39:08;98186.56;;;21.69;58.38
66801;BME280;53703;50.326;19.122;2023-07-20T06:41:45;98185.02;;;21.63;58.47
66801;BME280;53703;50.326;19.122;2023-07-20T06:44:19;98193.30;;;21.67;58.26
66801;BME280;53703;50.326;19.122;2023-07-20T06:46:52;98197.25;;;21.66;58.49
66801;BME280;53703;50.326;19.122;2023-07-20T06:49:29;98195.50;;;21.66;58.22
66801;BME280;53703;50.326;19.122;2023-07-20T06:52:07;98200.24;;;21.71;58.27
66801;BME280;53703;50.326;19.122;2023-07-20T06:54:40;98196.97;;;21.70;58.48
66801;BME280;53703;50.326;19.122;2023-07-20T06:57:16;98201.98;;;21.71;58.54
66801;BME280;53703;50.326;19.122;2023-07-20T06:59:51;98203.63;;;21.69;58.25
66801;BME280;53703;50.326;19.122;2023-07-20T07:02:25;98200.98;;;21.67;57.96
66801;BME280;53703;50.326;19.122;2023-07-20T07:05:00;98202.74;;;21.68;58.04
66801;BME280;53703;50.326;19.122;2023-07-20T07:07:51;98200.96;;;21.71;57.22
66801;BME280;53703;50.326;19.122;2023-07-20T07:10:24;98199.88;;;21.73;56.93
66801;BME280;53703;50.326;19.122;2023-07-20T07:12:58;98202.00;;;21.73;56.21
66801;BME280;53703;50.326;19.122;2023-07-20T07:15:32;98200.83;;;21.73;56.27
66801;BME280;53703;50.326;19.122;2023-07-20T07:18:07;98205.09;;;21.71;56.31
66801;BME280;53703;50.326;19.122;2023-07-20T07:20:40;98202.67;;;21.76;56.17
66801;BME280;53703;50.326;19.122;2023-07-20T07:23:13;98208.23;;;21.77;55.74
66801;BME280;53703;50.326;19.122;2023-07-20T07:25:47;98207.89;;;21.85;55.53
66801;BME280;53703;50.326;19.122;2023-07-20T07:28:20;98210.86;;;21.78;54.91
66801;BME280;53703;50.326;19.122;2023-07-20T07:30:54;98210.30;;;21.79;55.41
66801;BME280;53703;50.326;19.122;2023-07-20T07:33:29;98206.23;;;21.87;55.10
66801;BME280;53703;50.326;19.122;2023-07-20T07:36:02;98203.48;;;21.80;55.16
66801;BME280;53703;50.326;19.122;2023-07-20T07:38:36;98204.45;;;21.81;55.38
66801;BME280;53703;50.326;19.122;2023-07-20T07:41:29;98208.04;;;21.84;55.37
66801;BME280;53703;50.326;19.122;2023-07-20T07:44:03;98209.99;;;21.92;54.93
66801;BME280;53703;50.326;19.122;2023-07-20T07:46:36;98212.67;;;21.90;54.69
66801;BME280;53703;50.326;19.122;2023-07-20T07:49:10;98216.15;;;21.86;55.29
66801;BME280;53703;50.326;19.122;2023-07-20T07:51:43;98215.21;;;21.89;55.30
66801;BME280;53703;50.326;19.122;2023-07-20T07:54:17;98217.80;;;21.83;55.38
66801;BME280;53703;50.326;19.122;2023-07-20T07:56:50;98214.59;;;21.90;55.24
66801;BME280;53703;50.326;19.122;2023-07-20T07:59:24;98217.20;;;21.90;55.01
66801;BME280;53703;50.326;19.122;2023-07-20T08:01:58;98223.15;;;21.90;55.12
66801;BME280;53703;50.326;19.122;2023-07-20T08:04:32;98225.79;;;21.91;54.93
66801;BME280;53703;50.326;19.122;2023-07-20T08:07:07;98231.39;;;21.88;55.40
66801;BME280;53703;50.326;19.122;2023-07-20T08:09:41;98227.80;;;21.83;55.40
66801;BME280;53703;50.326;19.122;2023-07-20T08:12:14;98230.33;;;21.80;55.30
66801;BME280;53703;50.326;19.122;2023-07-20T08:14:51;98230.35;;;21.85;55.77
66801;BME280;53703;50.326;19.122;2023-07-20T08:17:24;98230.95;;;21.90;55.63
66801;BME280;53703;50.326;19.122;2023-07-20T08:19:58;98228.76;;;21.95;55.46
66801;BME280;53703;50.326;19.122;2023-07-20T08:22:32;98230.32;;;21.93;55.89
66801;BME280;53703;50.326;19.122;2023-07-20T08:25:10;98230.57;;;21.94;56.05
66801;BME280;53703;50.326;19.122;2023-07-20T08:27:45;98232.40;;;21.95;55.99
66801;BME280;53703;50.326;19.122;2023-07-20T08:30:20;98232.02;;;21.95;55.59
66801;BME280;53703;50.326;19.122;2023-07-20T08:32:54;98228.61;;;21.99;55.39
66801;BME280;53703;50.326;19.122;2023-07-20T08:35:27;98231.12;;;21.93;55.64
66801;BME280;53703;50.326;19.122;2023-07-20T08:38:01;98230.17;;;21.95;55.65
66801;BME280;53703;50.326;19.122;2023-07-20T08:40:40;98236.34;;;22.01;55.69
66801;BME280;53703;50.326;19.122;2023-07-20T08:43:15;98236.73;;;22.00;55.48
66801;BME280;53703;50.326;19.122;2023-07-20T08:45:51;98237.33;;;21.96;56.05
66801;BME280;53703;50.326;19.122;2023-07-20T08:48:25;98245.35;;;21.96;55.96
66801;BME280;53703;50.326;19.122;2023-07-20T08:51:01;98242.65;;;21.94;56.07
66801;BME280;53703;50.326;19.122;2023-07-20T08:53:35;98244.69;;;21.93;56.15
66801;BME280;53703;50.326;19.122;2023-07-20T08:56:10;98247.52;;;21.99;55.96
66801;BME280;53703;50.326;19.122;2023-07-20T08:58:44;98243.00;;;22.00;55.94
66801;BME280;53703;50.326;19.122;2023-07-20T09:01:19;98249.03;;;22.00;56.09
66801;BME280;53703;50.326;19.122;2023-07-20T09:03:53;98244.42;;;22.01;55.96
66801;BME280;53703;50.326;19.122;2023-07-20T09:06:28;98244.77;;;22.02;56.00
66801;BME280;53703;50.326;19.122;2023-07-20T09:09:02;98252.67;;;21.99;55.89
66801;BME280;53703;50.326;19.122;2023-07-20T09:11:36;98249.88;;;21.98;55.91
66801;BME280;53703;50.326;19.122;2023-07-20T09:14:11;98247.05;;;22.04;55.69
66801;BME280;53703;50.326;19.122;2023-07-20T09:16:53;98252.77;;;22.02;55.75
66801;BME280;53703;50.326;19.122;2023-07-20T09:19:26;98252.59;;;21.98;56.11
66801;BME280;53703;50.326;19.122;2023-07-20T09:22:00;98253.67;;;21.95;56.65
66801;BME280;53703;50.326;19.122;2023-07-20T09:24:33;98249.10;;;22.00;56.25
66801;BME280;53703;50.326;19.122;2023-07-20T09:27:09;98247.06;;;22.04;55.71
66801;BME280;53703;50.326;19.122;2023-07-20T09:29:51;98244.63;;;22.10;55.64
66801;BME280;53703;50.326;19.122;2023-07-20T09:32:25;98242.73;;;22.12;55.57
66801;BME280;53703;50.326;19.122;2023-07-20T09:34:58;98243.44;;;22.11;55.86
66801;BME280;53703;50.326;19.122;2023-07-20T09:37:57;98248.04;;;22.07;56.12
66801;BME280;53703;50.326;19.122;2023-07-20T09:41:12;98247.22;;;22.05;56.33
66801;BME280;53703;50.326;19.122;2023-07-20T09:43:49;98250.88;;;22.05;56.44
66801;BME280;53703;50.326;19.122;2023-07-20T09:46:23;98252.85;;;22.02;56.77
66801;BME280;53703;50.326;19.122;2023-07-20T09:48:59;98252.34;;;21.98;56.39
66801;BME280;53703;50.326;19.122;2023-07-20T09:51:37;98255.06;;;22.01;56.34
66801;BME280;53703;50.326;19.122;2023-07-20T09:54:11;98261.98;;;22.02;56.27
66801;BME280;53703;50.326;19.122;2023-07-20T09:56:47;98269.27;;;22.03;56.31
66801;BME280;53703;50.326;19.122;2023-07-20T09:59:21;98268.34;;;22.05;56.59
66801;BME280;53703;50.326;19.122;2023-07-20T10:01:58;98268.27;;;22.04;56.93
66801;BME280;53703;50.326;19.122;2023-07-20T10:04:35;98274.91;;;22.01;57.32
66801;BME280;53703;50.326;19.122;2023-07-20T10:07:11;98273.31;;;22.01;57.56
66801;BME280;53703;50.326;19.122;2023-07-20T10:09:47;98273.48;;;22.04;57.83
66801;BME280;53703;50.326;19.122;2023-07-20T10:12:22;98270.61;;;22.01;57.94
66801;BME280;53703;50.326;19.122;2023-07-20T10:15:07;98266.73;;;22.01;57.89
66801;BME280;53703;50.326;19.122;2023-07-20T10:17:58;98256.73;;;22.01;58.03
66801;BME280;53703;50.326;19.122;2023-07-20T10:20:33;98258.25;;;22.05;57.85
66801;BME280;53703;50.326;19.122;2023-07-20T10:23:09;98258.10;;;22.05;57.51
66801;BME280;53703;50.326;19.122;2023-07-20T10:25:43;98258.42;;;22.07;57.50
66801;BME280;53703;50.326;19.122;2023-07-20T10:28:18;98255.64;;;22.05;57.46
66801;BME280;53703;50.326;19.122;2023-07-20T10:30:51;98257.16;;;22.08;57.48
66801;BME280;53703;50.326;19.122;2023-07-20T10:33:25;98259.00;;;22.10;57.34
66801;BME280;53703;50.326;19.122;2023-07-20T10:36:02;98256.10;;;22.15;57.40
66801;BME280;53703;50.326;19.122;2023-07-20T10:38:44;98255.88;;;22.18;57.35
66801;BME280;53703;50.326;19.122;2023-07-20T10:41:29;98258.58;;;22.17;57.06
66801;BME280;53703;50.326;19.122;2023-07-20T10:44:04;98259.27;;;22.16;57.02
66801;BME280;53703;50.326;19.122;2023-07-20T10:46:47;98256.49;;;22.15;57.04
66801;BME280;53703;50.326;19.122;2023-07-20T10:49:20;98247.04;;;22.27;57.20
66801;BME280;53703;50.326;19.122;2023-07-20T10:52:05;98251.33;;;22.27;57.27
66801;BME280;53703;50.326;19.122;2023-07-20T10:54:52;98249.07;;;22.22;57.46
66801;BME280;53703;50.326;19.122;2023-07-20T10:57:31;98241.56;;;22.28;57.39
66801;BME280;53703;50.326;19.122;2023-07-20T11:00:18;98244.01;;;22.25;57.46
66801;BME280;53703;50.326;19.122;2023-07-20T11:02:59;98241.38;;;22.25;57.42
66801;BME280;53703;50.326;19.122;2023-07-20T11:05:40;98238.42;;;22.21;56.61
66801;BME280;53703;50.326;19.122;2023-07-20T11:08:41;98236.06;;;22.23;56.30
66801;BME280;53703;50.326;19.122;2023-07-20T11:11:28;98230.98;;;22.26;56.75
66801;BME280;53703;50.326;19.122;2023-07-20T11:14:03;98229.39;;;22.22;56.69
66801;BME280;53703;50.326;19.122;2023-07-20T11:16:39;98222.16;;;22.24;56.28
66801;BME280;53703;50.326;19.122;2023-07-20T11:19:21;98222.39;;;22.21;56.57
66801;BME280;53703;50.326;19.122;2023-07-20T11:21:59;98222.23;;;22.23;56.68
66801;BME280;53703;50.326;19.122;2023-07-20T11:24:37;98219.84;;;22.20;56.15
66801;BME280;53703;50.326;19.122;2023-07-20T11:27:11;98221.45;;;22.26;56.85
66801;BME280;53703;50.326;19.122;2023-07-20T11:29:46;98217.34;;;22.29;56.90
66801;BME280;53703;50.326;19.122;2023-07-20T11:32:24;98215.30;;;22.32;57.04
66801;BME280;53703;50.326;19.122;2023-07-20T11:34:58;98212.18;;;22.30;56.97
66801;BME280;53703;50.326;19.122;2023-07-20T11:37:33;98214.77;;;22.22;57.18
66801;BME280;53703;50.326;19.122;2023-07-20T11:40:10;98212.23;;;22.22;56.37
66801;BME280;53703;50.326;19.122;2023-07-20T11:42:44;98209.54;;;22.25;55.80
66801;BME280;53703;50.326;19.122;2023-07-20T11:45:22;98202.66;;;22.32;56.02
66801;BME280;53703;50.326;19.122;2023-07-20T11:47:55;98202.98;;;22.31;56.23
66801;BME280;53703;50.326;19.122;2023-07-20T11:50:31;98200.52;;;22.31;56.10
66801;BME280;53703;50.326;19.122;2023-07-20T11:53:04;98200.52;;;22.32;55.76
66801;BME280;53703;50.326;19.122;2023-07-20T11:55:39;98199.97;;;22.34;54.63
66801;BME280;53703;50.326;19.122;2023-07-20T11:58:12;98199.35;;;22.37;54.52
66801;BME280;53703;50.326;19.122;2023-07-20T12:00:49;98199.18;;;22.34;53.33
66801;BME280;53703;50.326;19.122;2023-07-20T12:03:22;98201.61;;;22.29;52.88
66801;BME280;53703;50.326;19.122;2023-07-20T12:05:56;98192.65;;;22.30;53.48
66801;BME280;53703;50.326;19.122;2023-07-20T12:08:33;98191.79;;;22.34;53.73
66801;BME280;53703;50.326;19.122;2023-07-20T12:11:07;98183.86;;;22.37;54.09
66801;BME280;53703;50.326;19.122;2023-07-20T12:13:43;98181.38;;;22.33;53.94
66801;BME280;53703;50.326;19.122;2023-07-20T12:16:18;98182.17;;;22.30;54.37
66801;BME280;53703;50.326;19.122;2023-07-20T12:19:00;98181.00;;;22.36;54.28
66801;BME280;53703;50.326;19.122;2023-07-20T12:21:35;98174.58;;;22.40;54.25
66801;BME280;53703;50.326;19.122;2023-07-20T12:24:11;98177.20;;;22.38;53.93
66801;BME280;53703;50.326;19.122;2023-07-20T12:26:45;98181.73;;;22.38;54.11
66801;BME280;53703;50.326;19.122;2023-07-20T12:29:18;98183.45;;;22.50;54.05
66801;BME280;53703;50.326;19.122;2023-07-20T12:31:51;98180.57;;;22.62;53.52
66801;BME280;53703;50.326;19.122;2023-07-20T12:34:25;98175.70;;;22.55;53.71
66801;BME280;53703;50.326;19.122;2023-07-20T12:36:58;98175.98;;;22.49;53.74
66801;BME280;53703;50.326;19.122;2023-07-20T12:39:31;98180.08;;;22.42;53.34
66801;BME280;53703;50.326;19.122;2023-07-20T12:42:06;98184.45;;;22.42;52.88
66801;BME280;53703;50.326;19.122;2023-07-20T12:44:39;98181.11;;;22.41;53.27
66801;BME280;53703;50.326;19.122;2023-07-20T12:47:13;98178.95;;;22.41;53.47
66801;BME280;53703;50.326;19.122;2023-07-20T12:49:46;98169.66;;;22.40;53.55
66801;BME280;53703;50.326;19.122;2023-07-20T12:52:20;98176.41;;;22.40;53.34
66801;BME280;53703;50.326;19.122;2023-07-20T12:54:53;98173.88;;;22.38;53.56
66801;BME280;53703;50.326;19.122;2023-07-20T12:57:26;98169.73;;;22.37;53.61
66801;BME280;53703;50.326;19.122;2023-07-20T13:00:00;98173.14;;;22.41;53.72
66801;BME280;53703;50.326;19.122;2023-07-20T13:02:35;98170.11;;;22.36;53.91
66801;BME280;53703;50.326;19.122;2023-07-20T13:05:10;98174.24;;;22.35;54.13
66801;BME280;53703;50.326;19.122;2023-07-20T13:07:44;98172.27;;;22.38;53.93
66801;BME280;53703;50.326;19.122;2023-07-20T13:10:21;98165.92;;;22.40;52.90
66801;BME280;53703;50.326;19.122;2023-07-20T13:12:54;98160.29;;;22.39;52.94
66801;BME280;53703;50.326;19.122;2023-07-20T13:15:35;98169.42;;;22.37;52.99
66801;BME280;53703;50.326;19.122;2023-07-20T13:18:13;98175.06;;;22.42;53.18
66801;BME280;53703;50.326;19.122;2023-07-20T13:20:46;98176.59;;;22.44;53.72
66801;BME280;53703;50.326;19.122;2023-07-20T13:23:20;98174.77;;;22.46;53.68
66801;BME280;53703;50.326;19.122;2023-07-20T13:25:53;98162.66;;;22.52;52.69
66801;BME280;53703;50.326;19.122;2023-07-20T13:28:26;98171.04;;;22.49;53.09
66801;BME280;53703;50.326;19.122;2023-07-20T13:31:01;98170.80;;;22.47;53.08
66801;BME280;53703;50.326;19.122;2023-07-20T13:33:34;98169.37;;;22.50;52.82